Time;durP1;ratioP1;P1;durP2;ratioP2;P2;SDS_P1;SDS_P2;PMS_P1;PMS_P2;Temp;Humidity;BMP_temperature;BMP_pressure;BME280_temperature;BME280_humidity;BME280_pressure;Samples;Min_cycle;Max_cycle;Signal;HPM_P1;HPM_P2
2022/10/29 00:00:33;;;;;;;11.23;5.90;;;15.90;99.90;;;;;;4995071;28;20423;-69
2022/10/29 00:02:59;;;;;;;14.33;5.50;;;15.80;99.90;;;;;;4995259;28;20222;-67
2022/10/29 00:05:24;;;;;;;11.50;5.73;;;15.90;99.90;;;;;;4995091;28;20226;-70
2022/10/29 00:07:50;;;;;;;22.60;5.83;;;16.00;99.90;;;;;;4995176;28;20537;-70
2022/10/29 00:10:16;;;;;;;8.90;5.63;;;16.00;99.90;;;;;;4994865;28;20176;-70
2022/10/29 00:12:41;;;;;;;11.53;6.40;;;16.00;99.90;;;;;;4995055;28;20203;-70
2022/10/29 00:15:07;;;;;;;8.73;5.50;;;16.10;99.90;;;;;;4994932;28;20182;-71
2022/10/29 00:17:33;;;;;;;9.60;5.50;;;16.00;99.90;;;;;;4986591;28;20192;-71
2022/10/29 00:19:59;;;;;;;10.40;4.70;;;16.00;99.90;;;;;;4979412;28;20424;-71
2022/10/29 00:22:24;;;;;;;7.87;5.47;;;15.80;99.90;;;;;;4975475;28;20454;-71
2022/10/29 00:24:50;;;;;;;13.80;8.53;;;15.70;99.90;;;;;;4975355;28;20230;-71
2022/10/29 00:27:15;;;;;;;11.50;7.70;;;15.50;99.90;;;;;;4975143;28;20208;-70
2022/10/29 00:29:41;;;;;;;12.70;7.20;;;15.40;99.90;;;;;;4975063;28;20215;-71
2022/10/29 00:32:08;;;;;;;8.03;6.50;;;15.30;99.90;;;;;;4975326;28;20235;-71
2022/10/29 00:34:35;;;;;;;12.77;6.60;;;15.20;99.90;;;;;;4974032;28;20172;-71
2022/10/29 00:37:01;;;;;;;18.40;6.70;;;15.30;99.90;;;;;;4975193;28;20443;-70
2022/10/29 00:39:28;;;;;;;14.80;6.43;;;15.40;99.90;;;;;;4974914;28;20435;-71
2022/10/29 00:41:54;;;;;;;11.57;6.20;;;15.20;99.90;;;;;;4975008;28;20415;-71
2022/10/29 00:44:39;;;;;;;9.93;5.33;;;15.10;99.90;;;;;;4975105;28;20443;-70
2022/10/29 00:47:43;;;;;;;8.33;5.47;;;15.20;99.90;;;;;;4974919;28;20451;-70
2022/10/29 00:50:12;;;;;;;8.97;6.37;;;15.20;99.90;;;;;;4974275;28;20427;-71
2022/10/29 00:52:42;;;;;;;11.20;7.10;;;15.30;99.90;;;;;;4973584;28;20475;-71
2022/10/29 00:55:10;;;;;;;7.57;5.80;;;15.30;99.90;;;;;;4974270;28;20498;-71
2022/10/29 00:57:40;;;;;;;10.70;6.50;;;15.30;99.90;;;;;;4974700;28;20419;-70
2022/10/29 01:00:06;;;;;;;11.60;6.57;;;15.40;99.90;;;;;;4974476;28;20514;-70
2022/10/29 01:02:34;;;;;;;9.87;6.73;;;15.40;99.90;;;;;;4974691;28;20510;-71
2022/10/29 01:05:01;;;;;;;10.60;6.83;;;15.40;99.90;;;;;;4974532;28;20459;-70
2022/10/29 01:07:28;;;;;;;12.17;6.60;;;15.40;99.90;;;;;;4974552;28;20454;-70
2022/10/29 01:09:53;;;;;;;12.13;7.43;;;15.30;99.90;;;;;;4972979;28;20769;-70
2022/10/29 01:12:34;;;;;;;8.50;6.40;;;15.30;99.90;;;;;;4974492;28;20443;-71
2022/10/29 01:15:37;;;;;;;9.73;5.90;;;15.30;99.90;;;;;;4974492;28;20552;-71
2022/10/29 01:18:19;;;;;;;14.60;6.37;;;15.20;99.90;;;;;;4974389;28;20474;-70
2022/10/29 01:20:57;;;;;;;12.93;6.30;;;15.20;99.90;;;;;;4974464;28;20426;-70
2022/10/29 01:23:50;;;;;;;14.10;8.33;;;15.20;99.90;;;;;;4974367;28;20426;-70
2022/10/29 01:26:40;;;;;;;9.20;6.30;;;15.20;99.90;;;;;;4974087;28;20880;-71
2022/10/29 01:29:30;;;;;;;8.13;5.50;;;15.20;99.90;;;;;;4973950;28;20422;-70
2022/10/29 01:32:12;;;;;;;10.40;6.00;;;15.30;99.90;;;;;;4974203;28;20787;-70
2022/10/29 01:34:50;;;;;;;11.43;6.20;;;15.40;99.90;;;;;;4974275;28;20442;-70
2022/10/29 01:37:36;;;;;;;9.20;6.83;;;15.50;99.90;;;;;;4974007;28;20446;-71
2022/10/29 01:40:23;;;;;;;13.00;6.40;;;15.40;99.90;;;;;;4973815;28;20427;-70
2022/10/29 01:42:56;;;;;;;13.20;6.73;;;15.40;99.90;;;;;;4972779;28;20913;-70
2022/10/29 01:45:31;;;;;;;14.37;6.37;;;15.60;99.90;;;;;;4974005;28;20829;-70
2022/10/29 01:48:03;;;;;;;9.27;7.20;;;15.50;99.90;;;;;;4973907;28;20482;-70
2022/10/29 01:50:29;;;;;;;10.50;7.70;;;15.50;99.90;;;;;;4973559;28;20458;-71
2022/10/29 01:52:56;;;;;;;11.50;7.17;;;15.50;99.90;;;;;;4973745;28;20846;-70
2022/10/29 01:55:28;;;;;;;10.33;6.80;;;15.40;99.90;;;;;;4973867;28;20431;-70
2022/10/29 01:57:54;;;;;;;7.40;6.70;;;15.50;99.90;;;;;;4973777;28;20490;-70
2022/10/29 02:00:20;;;;;;;11.03;7.03;;;15.60;99.90;;;;;;4973443;28;20467;-73
2022/10/29 02:03:12;;;;;;;15.90;6.83;;;15.50;99.90;;;;;;4973749;28;20191;-71
2022/10/29 02:06:02;;;;;;;17.43;8.23;;;15.50;99.90;;;;;;4973387;28;21039;-70
2022/10/29 02:08:54;;;;;;;11.60;7.50;;;15.40;99.90;;;;;;4972427;28;21128;-72
2022/10/29 02:11:45;;;;;;;12.40;7.97;;;15.40;99.90;;;;;;4973615;28;20466;-72
2022/10/29 02:14:26;;;;;;;12.00;6.90;;;15.30;99.90;;;;;;4973507;28;20936;-72
2022/10/29 02:16:53;;;;;;;11.87;6.80;;;15.30;99.90;;;;;;4973473;28;20927;-72
2022/10/29 02:19:19;;;;;;;11.13;7.33;;;15.40;99.90;;;;;;4973171;28;20416;-72
2022/10/29 02:21:44;;;;;;;13.80;8.40;;;15.40;99.90;;;;;;4973422;28;20434;-72
2022/10/29 02:24:10;;;;;;;9.50;6.30;;;15.40;99.90;;;;;;4973388;28;20646;-72
2022/10/29 02:26:35;;;;;;;8.33;6.90;;;15.40;99.90;;;;;;4973102;28;20239;-72
2022/10/29 02:29:01;;;;;;;8.90;7.00;;;15.40;99.90;;;;;;4973009;28;20168;-72
2022/10/29 02:31:27;;;;;;;11.20;7.20;;;15.50;99.90;;;;;;4973311;28;20176;-72
2022/10/29 02:33:52;;;;;;;10.60;6.40;;;15.40;99.90;;;;;;4973345;28;20177;-72
2022/10/29 02:36:18;;;;;;;16.47;6.77;;;15.60;99.90;;;;;;4973186;28;20857;-72
2022/10/29 02:38:44;;;;;;;15.40;8.03;;;15.50;99.90;;;;;;4972847;28;20665;-72
2022/10/29 02:41:09;;;;;;;14.77;7.00;;;15.60;99.90;;;;;;4973225;28;20311;-72
2022/10/29 02:43:35;;;;;;;8.80;5.93;;;15.50;99.90;;;;;;4973209;28;20267;-72
2022/10/29 02:46:11;;;;;;;9.40;6.37;;;15.50;99.90;;;;;;4973175;28;20636;-72
2022/10/29 02:48:37;;;;;;;12.83;6.83;;;15.50;99.90;;;;;;4972913;28;20532;-72
2022/10/29 02:51:02;;;;;;;10.63;6.80;;;15.50;99.90;;;;;;4973097;28;20463;-72
2022/10/29 02:53:28;;;;;;;12.90;6.53;;;15.50;99.90;;;;;;4973047;28;20267;-72
2022/10/29 02:55:53;;;;;;;11.83;7.93;;;15.40;99.90;;;;;;4973183;28;20200;-72
2022/10/29 02:58:19;;;;;;;12.93;6.70;;;15.50;99.90;;;;;;4972805;28;20176;-72
2022/10/29 03:00:48;;;;;;;11.70;7.27;;;15.50;99.90;;;;;;4973164;28;20184;-72
2022/10/29 03:03:14;;;;;;;12.33;7.70;;;15.60;99.90;;;;;;4973069;28;20558;-72
2022/10/29 03:05:39;;;;;;;11.03;6.53;;;15.60;99.90;;;;;;4972905;28;20482;-71
2022/10/29 03:08:05;;;;;;;13.77;7.27;;;15.60;99.90;;;;;;4972828;28;20191;-72
2022/10/29 03:10:30;;;;;;;12.30;7.53;;;15.70;99.90;;;;;;4972743;28;20176;-72
2022/10/29 03:12:59;;;;;;;10.90;6.33;;;15.60;99.90;;;;;;4973025;28;20192;-72
2022/10/29 03:15:25;;;;;;;10.70;7.10;;;15.70;99.90;;;;;;4972873;28;20191;-72
2022/10/29 03:17:50;;;;;;;10.23;7.00;;;15.70;99.90;;;;;;4972950;28;20800;-72
2022/10/29 03:20:16;;;;;;;10.03;6.70;;;15.70;99.90;;;;;;4975567;28;20184;-72
2022/10/29 03:22:41;;;;;;;14.03;7.67;;;15.70;99.90;;;;;;4976516;28;20180;-72
2022/10/29 03:25:07;;;;;;;12.43;8.53;;;15.50;99.90;;;;;;4976501;28;20196;-72
2022/10/29 03:27:43;;;;;;;11.10;6.13;;;15.50;99.90;;;;;;4976326;28;20212;-72
2022/10/29 03:30:10;;;;;;;10.97;7.20;;;15.60;99.90;;;;;;4976192;28;20461;-72
2022/10/29 03:32:40;;;;;;;11.93;6.70;;;15.40;99.90;;;;;;4976365;28;20849;-72
2022/10/29 03:35:07;;;;;;;10.07;6.73;;;15.40;99.90;;;;;;4976406;28;20466;-72
2022/10/29 03:37:32;;;;;;;9.67;7.30;;;15.40;99.90;;;;;;4976289;28;20534;-72
2022/10/29 03:39:58;;;;;;;14.80;7.77;;;15.30;99.90;;;;;;4975973;28;20440;-71
2022/10/29 03:42:23;;;;;;;13.77;6.43;;;15.50;99.90;;;;;;4976174;28;20202;-72
2022/10/29 03:44:49;;;;;;;11.20;6.17;;;15.30;99.90;;;;;;4976113;28;20648;-72
2022/10/29 03:47:14;;;;;;;10.47;6.50;;;15.40;99.90;;;;;;4976090;28;20572;-72
2022/10/29 03:49:40;;;;;;;8.97;7.97;;;15.30;99.90;;;;;;4975779;28;20172;-72
2022/10/29 03:52:05;;;;;;;8.80;7.03;;;15.30;99.90;;;;;;4976214;28;20185;-72
2022/10/29 03:54:31;;;;;;;11.73;8.43;;;15.30;99.90;;;;;;4976060;28;20187;-72
2022/10/29 03:56:56;;;;;;;10.27;7.40;;;15.30;99.90;;;;;;4975966;28;20200;-72
2022/10/29 03:59:22;;;;;;;12.03;7.50;;;15.30;99.90;;;;;;4975710;28;20185;-72
2022/10/29 04:01:47;;;;;;;9.23;7.53;;;15.30;99.90;;;;;;4975973;28;20561;-72
2022/10/29 04:04:13;;;;;;;11.50;7.10;;;15.30;99.90;;;;;;4975765;28;20188;-73
2022/10/29 04:06:38;;;;;;;18.33;7.20;;;15.40;99.90;;;;;;4975572;28;20211;-72
2022/10/29 04:09:04;;;;;;;12.37;7.63;;;15.40;99.90;;;;;;4975484;28;20179;-71
2022/10/29 04:11:30;;;;;;;11.43;6.83;;;15.30;99.90;;;;;;4975789;28;20207;-72
2022/10/29 04:13:55;;;;;;;9.00;7.23;;;15.40;99.90;;;;;;4975682;28;20642;-72
2022/10/29 04:16:21;;;;;;;11.93;6.97;;;15.30;99.90;;;;;;4975583;28;20196;-72
2022/10/29 04:18:47;;;;;;;11.20;7.30;;;15.40;99.90;;;;;;4975306;28;20180;-72
2022/10/29 04:21:13;;;;;;;13.10;8.87;;;15.30;99.90;;;;;;4975567;28;20216;-72
2022/10/29 04:23:39;;;;;;;13.73;6.90;;;15.30;99.90;;;;;;4975545;28;21058;-72
2022/10/29 04:26:04;;;;;;;11.80;6.97;;;15.30;99.90;;;;;;4975170;28;20749;-72
2022/10/29 04:28:30;;;;;;;13.20;5.97;;;15.30;99.90;;;;;;4975042;28;20275;-72
2022/10/29 04:30:56;;;;;;;7.70;6.93;;;15.20;99.90;;;;;;4974286;28;20181;-72
2022/10/29 04:33:22;;;;;;;15.77;8.07;;;15.20;99.90;;;;;;4975197;28;20430;-72
2022/10/29 04:35:52;;;;;;;12.20;6.80;;;15.20;99.90;;;;;;4975100;28;20616;-72
2022/10/29 04:38:18;;;;;;;7.97;7.00;;;15.20;99.90;;;;;;4974920;28;20243;-72
2022/10/29 04:40:43;;;;;;;12.67;7.13;;;15.10;99.90;;;;;;4975214;28;20431;-72
2022/10/29 04:43:09;;;;;;;8.20;6.97;;;15.20;99.90;;;;;;4975166;28;20507;-72
2022/10/29 04:45:34;;;;;;;13.20;6.43;;;15.00;99.90;;;;;;4974894;28;20219;-72
2022/10/29 04:48:01;;;;;;;9.13;8.13;;;15.10;99.90;;;;;;4974932;28;20651;-72
2022/10/29 04:50:28;;;;;;;9.40;7.53;;;15.50;99.90;;;;;;4974620;28;20638;-72
2022/10/29 04:53:00;;;;;;;11.83;7.03;;;15.10;99.90;;;;;;4974894;28;20499;-72
2022/10/29 04:55:26;;;;;;;11.83;7.90;;;14.90;99.90;;;;;;4974773;28;20415;-72
2022/10/29 04:57:52;;;;;;;10.50;6.50;;;14.90;99.90;;;;;;4974769;28;20420;-72
2022/10/29 05:00:18;;;;;;;10.90;8.20;;;14.80;99.90;;;;;;4974390;28;20540;-72
2022/10/29 05:02:48;;;;;;;10.60;7.50;;;14.70;99.90;;;;;;4974727;28;20172;-72
2022/10/29 05:05:15;;;;;;;14.80;8.00;;;14.60;99.90;;;;;;4974474;28;20207;-72
2022/10/29 05:07:40;;;;;;;10.27;7.37;;;14.50;99.90;;;;;;4974617;28;20424;-72
2022/10/29 05:10:06;;;;;;;12.73;8.37;;;14.50;99.90;;;;;;4974340;28;20429;-71
2022/10/29 05:12:32;;;;;;;9.63;7.10;;;14.50;99.90;;;;;;4974581;28;20168;-72
2022/10/29 05:14:57;;;;;;;10.23;7.63;;;14.40;99.90;;;;;;4974511;28;20590;-71
2022/10/29 05:17:23;;;;;;;8.60;7.23;;;14.80;99.90;;;;;;4974340;28;20192;-71
2022/10/29 05:19:48;;;;;;;9.00;7.70;;;14.50;99.90;;;;;;4974146;28;20176;-71
2022/10/29 05:22:14;;;;;;;11.80;7.13;;;14.60;99.90;;;;;;4974401;28;20180;-71
2022/10/29 05:24:39;;;;;;;10.07;6.90;;;14.40;99.90;;;;;;4974252;28;20187;-72
2022/10/29 05:27:06;;;;;;;13.67;6.93;;;14.50;99.90;;;;;;4974540;28;20208;-72
2022/10/29 05:29:31;;;;;;;11.77;8.03;;;14.40;99.90;;;;;;4973918;28;20164;-71
2022/10/29 05:31:57;;;;;;;8.70;7.50;;;15.00;99.90;;;;;;4974264;28;20442;-72
2022/10/29 05:34:22;;;;;;;11.07;7.13;;;14.30;99.90;;;;;;4974131;28;20186;-72
2022/10/29 05:36:48;;;;;;;14.80;8.03;;;14.10;99.90;;;;;;4974090;28;20259;-72
2022/10/29 05:39:14;;;;;;;11.97;7.67;;;14.00;99.90;;;;;;4973815;28;20176;-72
2022/10/29 05:41:39;;;;;;;10.57;7.40;;;14.00;99.90;;;;;;4973840;28;20515;-72
2022/10/29 05:44:05;;;;;;;14.00;8.30;;;14.10;99.90;;;;;;4973946;28;20184;-71
2022/10/29 05:46:30;;;;;;;14.27;7.67;;;14.20;99.90;;;;;;4973851;28;20212;-71
2022/10/29 05:48:56;;;;;;;7.80;7.00;;;14.40;99.90;;;;;;4973716;28;20207;-71
2022/10/29 05:51:22;;;;;;;11.03;7.90;;;14.10;99.90;;;;;;4979359;28;20176;-71
2022/10/29 05:53:47;;;;;;;10.50;7.47;;;14.20;99.90;;;;;;4973938;28;20180;-72
2022/10/29 05:56:13;;;;;;;14.30;7.33;;;14.30;99.90;;;;;;4973691;28;20239;-71
2022/10/29 05:58:38;;;;;;;10.97;6.90;;;14.40;99.90;;;;;;4973340;28;20176;-71
2022/10/29 06:01:09;;;;;;;13.30;7.50;;;14.50;99.90;;;;;;4973673;28;20191;-71
2022/10/29 06:03:34;;;;;;;8.40;7.60;;;14.50;99.90;;;;;;4973647;28;20168;-71
2022/10/29 06:06:00;;;;;;;11.90;7.47;;;14.40;99.90;;;;;;4973626;28;20924;-66
2022/10/29 06:08:26;;;;;;;17.60;7.70;;;14.40;99.90;;;;;;4973116;28;20176;-66
2022/10/29 06:10:51;;;;;;;11.13;7.43;;;14.40;99.90;;;;;;4973250;28;20203;-66
2022/10/29 06:13:19;;;;;;;10.83;6.90;;;14.40;99.90;;;;;;4973522;28;20229;-66
2022/10/29 06:15:46;;;;;;;11.67;8.83;;;14.40;99.90;;;;;;4973209;28;20294;-66
2022/10/29 06:18:12;;;;;;;13.93;7.63;;;14.40;99.90;;;;;;4973156;28;20427;-66
2022/10/29 06:20:38;;;;;;;10.60;6.93;;;14.40;99.90;;;;;;4973555;28;20427;-66
2022/10/29 06:23:04;;;;;;;11.70;8.70;;;14.40;99.90;;;;;;4973413;28;20424;-66
2022/10/29 06:25:30;;;;;;;13.17;9.30;;;14.50;99.90;;;;;;4973270;28;20250;-66
2022/10/29 06:28:10;;;;;;;15.10;8.90;;;14.50;99.90;;;;;;4973400;28;20451;-65
2022/10/29 06:30:36;;;;;;;9.30;7.67;;;14.60;99.90;;;;;;4973347;28;20209;-66
2022/10/29 06:33:03;;;;;;;18.23;8.03;;;14.60;99.90;;;;;;4973191;28;20423;-65
2022/10/29 06:35:29;;;;;;;9.37;6.40;;;14.70;99.90;;;;;;4973265;28;20200;-65
2022/10/29 06:37:55;;;;;;;10.40;8.33;;;14.60;99.90;;;;;;4973249;28;20435;-65
2022/10/29 06:40:21;;;;;;;12.30;8.10;;;14.70;99.90;;;;;;4973102;28;20419;-65
2022/10/29 06:42:46;;;;;;;14.53;9.27;;;14.70;99.90;;;;;;4973339;28;20549;-65
2022/10/29 06:45:13;;;;;;;12.73;7.50;;;14.80;99.90;;;;;;4973131;28;20180;-65
2022/10/29 06:47:43;;;;;;;14.53;9.03;;;14.80;99.90;;;;;;4973097;28;20172;-65
2022/10/29 06:50:11;;;;;;;24.83;18.13;;;14.80;99.90;;;;;;4972941;28;20514;-66
2022/10/29 06:52:37;;;;;;;10.23;7.77;;;14.80;99.90;;;;;;4973090;28;20420;-65
2022/10/29 06:55:04;;;;;;;12.63;7.90;;;14.90;99.90;;;;;;4975914;28;20517;-66
2022/10/29 06:57:30;;;;;;;9.73;6.77;;;15.00;99.90;;;;;;4976839;28;20942;-65
2022/10/29 06:59:56;;;;;;;12.00;7.10;;;15.20;99.90;;;;;;4976863;28;20481;-66
2022/10/29 07:02:22;;;;;;;20.10;7.77;;;15.30;99.90;;;;;;4977022;28;20502;-66
2022/10/29 07:04:48;;;;;;;14.37;7.43;;;15.60;99.90;;;;;;4976951;28;20416;-65
2022/10/29 07:07:14;;;;;;;9.47;6.90;;;15.70;99.90;;;;;;4976846;28;20450;-68
2022/10/29 07:09:41;;;;;;;9.87;6.47;;;15.90;99.90;;;;;;4976510;28;20169;-66
2022/10/29 07:12:08;;;;;;;7.33;6.53;;;16.10;99.90;;;;;;4976738;28;20504;-68
2022/10/29 07:14:33;;;;;;;14.90;6.57;;;16.40;99.90;;;;;;4976723;28;20431;-66
2022/10/29 07:16:59;;;;;;;10.37;6.33;;;16.60;99.90;;;;;;4976236;28;20459;-65
2022/10/29 07:19:25;;;;;;;6.63;6.03;;;16.90;99.90;;;;;;4976437;28;20200;-65
2022/10/29 07:21:50;;;;;;;11.07;6.47;;;16.90;99.90;;;;;;4976519;28;20230;-65
2022/10/29 07:24:18;;;;;;;8.97;6.23;;;17.00;99.90;;;;;;4976556;28;20255;-65
2022/10/29 07:26:44;;;;;;;11.63;6.57;;;17.30;99.90;;;;;;4976293;28;20214;-66
2022/10/29 07:29:10;;;;;;;16.60;6.20;;;17.50;99.90;;;;;;4976057;28;20423;-65
2022/10/29 07:31:36;;;;;;;16.23;6.63;;;17.90;99.90;;;;;;4976544;28;20181;-65
2022/10/29 07:34:02;;;;;;;10.33;5.73;;;18.30;99.90;;;;;;4976380;28;20637;-66
2022/10/29 07:36:30;;;;;;;8.33;5.13;;;18.60;99.90;;;;;;4976144;28;20208;-65
2022/10/29 07:38:56;;;;;;;8.63;6.53;;;19.00;99.90;;;;;;4976145;28;20646;-65
2022/10/29 07:41:21;;;;;;;7.60;6.83;;;19.50;99.90;;;;;;4976245;28;20434;-65
2022/10/29 07:43:47;;;;;;;10.70;6.13;;;19.90;99.90;;;;;;4976143;28;20172;-65
2022/10/29 07:46:12;;;;;;;8.90;6.20;;;20.20;99.90;;;;;;4976043;28;20347;-66
2022/10/29 07:48:38;;;;;;;11.60;6.23;;;20.50;99.90;;;;;;4975775;28;20192;-66
2022/10/29 07:51:03;;;;;;;10.80;6.30;;;20.80;99.90;;;;;;4975984;28;20183;-66
2022/10/29 07:53:32;;;;;;;11.37;7.23;;;20.70;99.90;;;;;;4976273;28;20172;-65
2022/10/29 07:55:58;;;;;;;16.00;7.67;;;20.90;99.90;;;;;;4975848;28;20210;-66
2022/10/29 07:58:24;;;;;;;10.43;6.47;;;21.00;99.90;;;;;;4975554;28;20415;-66
2022/10/29 08:00:50;;;;;;;9.23;5.90;;;21.00;99.90;;;;;;4975845;28;20412;-66
2022/10/29 08:03:16;;;;;;;9.13;5.70;;;21.10;99.90;;;;;;4975912;28;20952;-66
2022/10/29 08:05:41;;;;;;;7.73;6.10;;;21.70;99.90;;;;;;4975665;28;20196;-66
2022/10/29 08:08:07;;;;;;;19.80;13.87;;;22.40;99.90;;;;;;4975743;28;20172;-66
2022/10/29 08:10:34;;;;;;;9.27;6.77;;;22.80;99.90;;;;;;4975485;28;20176;-66
2022/10/29 08:13:01;;;;;;;15.20;6.70;;;23.60;99.90;;;;;;4975729;28;20621;-66
2022/10/29 08:15:29;;;;;;;9.50;6.17;;;24.30;99.90;;;;;;4975398;28;20465;-66
2022/10/29 08:17:55;;;;;;;10.30;5.37;;;24.70;99.90;;;;;;4975400;28;20812;-66
2022/10/29 08:20:23;;;;;;;14.47;6.93;;;25.10;99.90;;;;;;4975307;28;20455;-66
2022/10/29 08:22:48;;;;;;;9.03;5.53;;;25.20;99.90;;;;;;4975358;28;20428;-66
2022/10/29 08:25:15;;;;;;;9.40;6.57;;;25.60;99.90;;;;;;4975412;28;20848;-66
2022/10/29 08:27:41;;;;;;;8.87;6.43;;;25.20;99.90;;;;;;4975425;28;20765;-66
2022/10/29 08:30:08;;;;;;;10.30;6.00;;;25.70;99.90;;;;;;4974968;28;20419;-66
2022/10/29 08:32:34;;;;;;;9.60;5.77;;;25.70;99.90;;;;;;4975266;28;20513;-66
2022/10/29 08:35:00;;;;;;;8.97;5.63;;;25.60;99.90;;;;;;4975157;28;20415;-67
2022/10/29 08:37:26;;;;;;;7.00;6.00;;;25.80;99.80;;;;;;4975302;28;20291;-66
2022/10/29 08:39:51;;;;;;;10.60;5.80;;;26.30;99.10;;;;;;4974949;28;20933;-66
2022/10/29 08:42:45;;;;;;;10.67;6.27;;;25.80;99.10;;;;;;4975156;28;20180;-66
2022/10/29 08:45:33;;;;;;;11.33;6.00;;;26.10;98.00;;;;;;4975012;28;20176;-66
2022/10/29 08:48:27;;;;;;;11.23;6.07;;;25.40;99.70;;;;;;4974964;28;20403;-66
2022/10/29 08:51:07;;;;;;;13.70;5.70;;;25.90;99.90;;;;;;4974993;28;20455;-66
2022/10/29 08:53:40;;;;;;;10.20;6.40;;;26.90;97.30;;;;;;4974954;28;20478;-66
2022/10/29 08:56:12;;;;;;;11.30;7.07;;;26.70;96.50;;;;;;4974722;28;20510;-66
2022/10/29 08:58:47;;;;;;;10.00;6.40;;;26.80;96.20;;;;;;4974647;28;20423;-66
2022/10/29 09:01:13;;;;;;;11.53;6.90;;;27.20;95.50;;;;;;4974769;28;20416;-67
2022/10/29 09:03:39;;;;;;;8.90;6.50;;;28.10;94.40;;;;;;4974713;28;20424;-67
2022/10/29 09:06:13;;;;;;;11.40;5.83;;;28.40;92.90;;;;;;4974619;28;20435;-67
2022/10/29 09:09:17;;;;;;;11.43;6.67;;;29.20;91.80;;;;;;4974191;28;20168;-66
2022/10/29 09:11:53;;;;;;;11.77;5.70;;;30.40;87.70;;;;;;4952987;29;20495;-67
2022/10/29 09:14:30;;;;;;;7.67;6.50;;;30.90;83.20;;;;;;4971452;28;20483;-67
2022/10/29 09:16:56;;;;;;;11.87;7.47;;;31.20;80.90;;;;;;4973585;28;20462;-67
2022/10/29 09:19:21;;;;;;;11.80;5.70;;;32.10;77.80;;;;;;4974150;28;20418;-67
2022/10/29 09:22:10;;;;;;;6.43;4.60;;;32.10;72.70;;;;;;4974354;28;20169;-67
2022/10/29 09:24:53;;;;;;;7.30;5.83;;;31.10;74.50;;;;;;4974429;28;20712;-67
2022/10/29 09:27:59;;;;;;;7.70;6.50;;;31.30;73.30;;;;;;4974157;28;20554;-67
2022/10/29 09:30:29;;;;;;;8.60;6.50;;;31.80;70.70;;;;;;4973959;28;21039;-67
2022/10/29 09:33:10;;;;;;;7.57;6.40;;;31.80;69.70;;;;;;4974247;28;21085;-67
2022/10/29 09:35:43;;;;;;;7.43;5.50;;;31.70;70.20;;;;;;4974114;28;20487;-67
2022/10/29 09:38:25;;;;;;;13.40;6.43;;;32.40;67.70;;;;;;4974040;28;20483;-67
2022/10/29 09:40:51;;;;;;;11.83;6.37;;;31.70;66.80;;;;;;4974049;28;20427;-67
2022/10/29 09:43:31;;;;;;;8.03;5.60;;;31.40;68.30;;;;;;4973917;28;20412;-67
2022/10/29 09:46:17;;;;;;;8.83;5.73;;;30.60;70.20;;;;;;4974112;28;20576;-67
2022/10/29 09:49:02;;;;;;;8.60;5.60;;;31.70;69.40;;;;;;4973678;28;20415;-66
2022/10/29 09:51:33;;;;;;;10.43;5.70;;;32.90;66.80;;;;;;4974116;28;20428;-67
2022/10/29 09:54:01;;;;;;;11.13;5.83;;;32.50;64.40;;;;;;4973918;28;20426;-67
2022/10/29 09:56:26;;;;;;;10.20;5.67;;;31.50;65.10;;;;;;4973790;28;20529;-67
2022/10/29 09:58:57;;;;;;;11.73;6.07;;;30.70;66.90;;;;;;4973461;28;20420;-66
2022/10/29 10:01:23;;;;;;;9.57;5.67;;;31.20;67.00;;;;;;4973713;28;20172;-66
2022/10/29 10:03:54;;;;;;;9.97;6.07;;;30.90;67.40;;;;;;4973638;28;20510;-66
2022/10/29 10:06:20;;;;;;;8.40;5.27;;;30.60;68.70;;;;;;4973592;28;20198;-66
2022/10/29 10:08:57;;;;;;;7.63;5.37;;;30.40;69.00;;;;;;4973343;28;20431;-66
2022/10/29 10:11:23;;;;;;;9.07;5.50;;;30.00;68.70;;;;;;4973595;28;20247;-67
2022/10/29 10:13:54;;;;;;;12.10;7.20;;;30.00;69.80;;;;;;4973437;28;20886;-67
2022/10/29 10:16:25;;;;;;;11.73;6.43;;;30.60;70.40;;;;;;4972870;28;20471;-66
2022/10/29 10:18:51;;;;;;;15.63;6.30;;;31.80;68.00;;;;;;4973272;28;20419;-66
2022/10/29 10:21:31;;;;;;;10.33;5.80;;;33.20;65.60;;;;;;4972438;28;20785;-67
2022/10/29 10:23:58;;;;;;;13.20;5.03;;;34.30;63.60;;;;;;4973455;28;20190;-67
2022/10/29 10:26:30;;;;;;;13.17;5.97;;;34.80;60.90;;;;;;4973251;28;20471;-67
2022/10/29 10:29:15;;;;;;;9.50;5.50;;;34.60;58.80;;;;;;4972144;28;20420;-66
2022/10/29 10:31:43;;;;;;;13.57;5.73;;;35.40;56.90;;;;;;4973389;28;20459;-67
2022/10/29 10:34:24;;;;;;;7.07;5.17;;;35.40;57.40;;;;;;4973305;28;20542;-67
2022/10/29 10:37:01;;;;;;;6.67;6.07;;;36.70;55.20;;;;;;4973463;28;20457;-67
2022/10/29 10:39:41;;;;;;;10.17;5.97;;;37.70;54.00;;;;;;4973208;28;20808;-66
2022/10/29 10:42:26;;;;;;;11.07;5.67;;;38.70;51.80;;;;;;4973254;28;20431;-67
2022/10/29 10:45:11;;;;;;;16.67;6.87;;;39.30;50.00;;;;;;4973144;28;20632;-67
2022/10/29 10:47:41;;;;;;;9.87;6.90;;;39.30;48.00;;;;;;4973193;28;20514;-67
2022/10/29 10:50:10;;;;;;;8.80;5.10;;;39.40;47.20;;;;;;4972858;28;20940;-67
2022/10/29 10:52:36;;;;;;;10.93;5.90;;;39.10;46.70;;;;;;4973136;28;20451;-66
2022/10/29 10:55:21;;;;;;;7.53;5.23;;;38.10;46.50;;;;;;4973170;28;20511;-67
2022/10/29 10:58:02;;;;;;;14.13;5.37;;;37.20;46.40;;;;;;4973145;28;20173;-67
2022/10/29 11:00:39;;;;;;;13.90;5.67;;;36.90;45.80;;;;;;4972794;28;20415;-67
2022/10/29 11:03:12;;;;;;;9.03;5.23;;;36.10;46.80;;;;;;4973072;28;20425;-67
2022/10/29 11:05:43;;;;;;;8.97;5.33;;;36.20;46.70;;;;;;4972827;28;20533;-67
2022/10/29 11:08:23;;;;;;;8.07;4.70;;;35.00;46.80;;;;;;4972911;28;20419;-67
2022/10/29 11:10:51;;;;;;;7.43;4.27;;;35.40;47.00;;;;;;4973031;28;20415;-66
2022/10/29 11:13:21;;;;;;;10.07;5.03;;;35.30;46.00;;;;;;4972939;28;20466;-67
2022/10/29 11:16:03;;;;;;;8.60;4.20;;;34.30;46.10;;;;;;4972349;28;20824;-66
2022/10/29 11:18:32;;;;;;;7.93;4.60;;;34.20;47.30;;;;;;4972779;28;20424;-67
2022/10/29 11:21:06;;;;;;;15.50;4.37;;;34.30;47.40;;;;;;4972987;28;20486;-66
2022/10/29 11:23:57;;;;;;;12.00;5.40;;;34.70;47.20;;;;;;4972923;28;20844;-66
2022/10/29 11:26:39;;;;;;;9.57;6.37;;;35.20;47.30;;;;;;4972976;28;21087;-67
2022/10/29 11:29:39;;;;;;;11.97;4.90;;;36.00;46.00;;;;;;4972600;28;20422;-66
2022/10/29 11:32:27;;;;;;;9.97;4.60;;;35.70;46.80;;;;;;4972914;28;20412;-67
2022/10/29 11:35:14;;;;;;;8.40;4.60;;;36.60;45.10;;;;;;4972811;28;20474;-67
2022/10/29 11:38:01;;;;;;;9.80;4.60;;;35.20;45.40;;;;;;4972887;28;20517;-66
2022/10/29 11:40:41;;;;;;;8.83;5.47;;;36.20;46.70;;;;;;4974281;28;20424;-67
2022/10/29 11:43:12;;;;;;;6.77;4.30;;;38.20;45.20;;;;;;4976268;28;20778;-66
2022/10/29 11:45:54;;;;;;;8.87;4.60;;;39.30;43.80;;;;;;4975960;28;20467;-67
2022/10/29 11:49:07;;;;;;;13.40;5.00;;;40.40;42.00;;;;;;4975953;28;20450;-67
2022/10/29 11:52:08;;;;;;;8.70;4.00;;;41.80;38.70;;;;;;4976355;28;20514;-67
2022/10/29 11:54:57;;;;;;;9.30;4.93;;;42.20;37.70;;;;;;4954413;29;20848;-67
2022/10/29 11:57:34;;;;;;;9.30;5.30;;;43.20;36.80;;;;;;4975029;28;20838;-67
2022/10/29 12:00:18;;;;;;;6.60;4.00;;;43.40;36.30;;;;;;4975659;28;20419;-66
2022/10/29 12:02:59;;;;;;;8.90;4.33;;;41.00;36.80;;;;;;4975827;28;20432;-66
2022/10/29 12:05:49;;;;;;;8.90;4.70;;;41.70;37.00;;;;;;4975677;28;21048;-67
2022/10/29 12:08:35;;;;;;;7.30;4.40;;;41.20;36.90;;;;;;4975683;28;20459;-67
2022/10/29 12:11:07;;;;;;;7.30;4.33;;;42.60;36.40;;;;;;4975769;28;20494;-67
2022/10/29 12:14:03;;;;;;;7.53;5.47;;;43.40;34.60;;;;;;4975596;28;20515;-67
2022/10/29 12:16:32;;;;;;;8.80;5.33;;;43.40;34.30;;;;;;4975191;28;20447;-67
2022/10/29 12:19:05;;;;;;;6.40;4.90;;;43.60;33.40;;;;;;4975294;28;20431;-67
2022/10/29 12:21:40;;;;;;;12.77;6.90;;;43.40;32.80;;;;;;4975614;28;20455;-67
2022/10/29 12:24:48;;;;;;;11.67;6.03;;;41.30;33.00;;;;;;4975589;28;20419;-68
2022/10/29 12:27:14;;;;;;;13.93;11.03;;;40.60;33.90;;;;;;4975204;28;20471;-67
2022/10/29 12:29:54;;;;;;;13.70;9.30;;;40.20;33.60;;;;;;4975146;28;20419;-67
2022/10/29 12:32:25;;;;;;;13.90;9.03;;;39.20;35.00;;;;;;4975315;28;20183;-67
2022/10/29 12:35:28;;;;;;;11.93;8.67;;;38.80;35.30;;;;;;4975288;28;20415;-66
2022/10/29 12:38:24;;;;;;;9.93;5.97;;;38.00;36.30;;;;;;4975255;28;20439;-67
2022/10/29 12:41:02;;;;;;;13.40;5.87;;;37.50;36.60;;;;;;4975194;28;20511;-67
2022/10/29 12:43:31;;;;;;;8.20;4.37;;;37.10;36.40;;;;;;4975180;28;20814;-66
2022/10/29 12:46:12;;;;;;;7.70;4.40;;;36.20;36.40;;;;;;4974993;28;20463;-67
2022/10/29 12:48:56;;;;;;;7.90;5.10;;;35.30;37.70;;;;;;4974704;28;20909;-67
2022/10/29 12:51:42;;;;;;;8.20;4.50;;;35.20;37.70;;;;;;4974072;28;20415;-68
2022/10/29 12:54:25;;;;;;;8.73;4.80;;;35.30;37.20;;;;;;4974864;28;20453;-67
2022/10/29 12:56:50;;;;;;;7.93;4.37;;;34.60;37.80;;;;;;4974945;28;20443;-67
2022/10/29 12:59:34;;;;;;;11.50;4.30;;;33.40;39.00;;;;;;4974535;28;20420;-67
2022/10/29 13:02:20;;;;;;;6.30;4.50;;;32.40;41.10;;;;;;4974756;28;20535;-67